createdAt,value
2019-04-19T12:42:42.080Z,1028.74
2019-04-19T12:43:40.880Z,1028.73
2019-04-19T12:44:42.030Z,1028.77
2019-04-19T12:45:42.058Z,1028.76
2019-04-19T12:47:04.805Z,1028.80
2019-04-19T12:48:04.982Z,1028.78
2019-04-19T12:49:04.610Z,1028.75
2019-04-19T12:50:07.557Z,1028.80
2019-04-19T12:51:03.774Z,1028.83
2019-04-19T12:52:04.108Z,1028.86
2019-04-19T12:53:04.268Z,1028.82
2019-04-19T12:54:03.704Z,1028.82
2019-04-19T12:54:56.751Z,1028.79
2019-04-19T12:55:44.127Z,1028.75
2019-04-19T12:56:44.288Z,1028.79
2019-04-19T12:57:43.948Z,1028.75
2019-04-19T12:58:44.050Z,1028.76
2019-04-19T12:59:44.258Z,1028.79
2019-04-19T13:00:43.864Z,1028.74
2019-04-19T13:01:43.957Z,1028.74
2019-04-19T13:02:44.988Z,1028.72
2019-04-19T13:03:44.477Z,1028.71
2019-04-19T13:04:44.381Z,1028.71
2019-04-19T13:05:43.759Z,1028.73
2019-04-19T13:06:44.089Z,1028.75
2019-04-19T13:07:43.717Z,1028.72
2019-04-19T13:08:43.695Z,1028.74
2019-04-19T13:09:44.614Z,1028.73
2019-04-19T13:10:44.863Z,1028.70
2019-04-19T13:11:43.629Z,1028.66
2019-04-19T13:12:44.030Z,1028.70
2019-04-19T13:13:43.780Z,1028.68
2019-04-19T13:14:43.897Z,1028.71
2019-04-19T13:24:24.551Z,1028.73
2019-04-19T13:25:23.967Z,1028.77
2019-04-19T13:26:25.139Z,1028.80
2019-04-19T13:27:36.516Z,1028.71
2019-04-19T13:28:23.912Z,1028.79
2019-04-19T13:29:25.253Z,1028.73
2019-04-19T13:30:33.037Z,1028.70
2019-04-19T13:31:24.834Z,1028.69
2019-04-19T13:32:23.955Z,1028.66
2019-04-19T13:33:24.118Z,1028.69
2019-04-19T13:34:25.017Z,1028.70
2019-04-19T13:35:23.791Z,1028.74
2019-04-19T13:36:24.822Z,1028.73
2019-04-19T13:37:24.901Z,1028.70
2019-04-19T13:38:23.743Z,1028.68
2019-04-19T13:39:23.727Z,1028.69
2019-04-19T13:40:24.216Z,1028.80
2019-04-19T13:41:25.009Z,1028.72
2019-04-19T13:42:24.565Z,1028.66
2019-04-19T13:43:24.832Z,1028.66
2019-04-19T13:44:24.964Z,1028.67
2019-04-19T13:45:29.660Z,1028.58
2019-04-19T13:46:24.543Z,1028.60
2019-04-19T13:47:24.630Z,1028.59
2019-04-19T13:48:24.915Z,1028.60
2019-04-19T13:49:24.431Z,1028.64
2019-04-19T13:50:29.470Z,1028.62
2019-04-19T13:51:24.715Z,1028.60
2019-04-19T13:52:24.296Z,1028.59
2019-04-19T13:53:24.587Z,1028.59
2019-04-19T13:54:24.846Z,1028.55
2019-04-19T13:55:24.444Z,1028.66
2019-04-19T13:56:24.777Z,1028.59
2019-04-19T13:57:23.797Z,1028.55
2019-04-19T13:58:23.415Z,1028.59
2019-04-19T13:59:37.665Z,1028.58
2019-04-19T14:00:24.600Z,1028.58
2019-04-19T14:01:24.582Z,1028.63
2019-04-19T14:02:23.350Z,1028.60
2019-04-19T14:03:23.515Z,1028.59
2019-04-19T14:04:23.689Z,1028.63
2019-04-19T14:05:23.414Z,1028.60
2019-04-19T14:06:24.469Z,1028.61
2019-04-19T14:07:23.273Z,1028.62
2019-04-19T14:08:23.259Z,1028.59
2019-04-19T14:09:23.251Z,1028.53
2019-04-19T14:10:23.377Z,1028.52
2019-04-19T14:11:23.212Z,1028.49
2019-04-19T14:12:23.195Z,1028.50
2019-04-19T14:13:23.279Z,1028.55
2019-04-19T14:14:23.398Z,1028.52
2019-04-19T14:15:23.145Z,1028.50
2019-04-19T14:16:23.838Z,1028.55
2019-04-19T14:17:24.097Z,1028.45
2019-04-19T14:18:23.106Z,1028.46
2019-04-19T14:19:23.085Z,1028.44
2019-04-19T14:20:32.598Z,1028.43
2019-04-19T14:21:23.110Z,1028.40
2019-04-19T14:22:23.437Z,1028.47
2019-04-19T14:23:23.604Z,1028.43
2019-04-19T14:24:23.005Z,1028.49
2019-04-19T14:25:23.319Z,1028.55
2019-04-19T14:26:36.880Z,1028.49
2019-04-19T14:27:23.490Z,1028.54
2019-04-19T14:28:23.321Z,1028.49
2019-04-19T14:29:23.332Z,1028.54
2019-04-19T14:30:23.602Z,1028.57
2019-04-19T14:31:23.999Z,1028.46
2019-04-19T14:32:23.288Z,1028.44
2019-04-19T14:33:23.158Z,1028.49
2019-04-19T14:34:22.848Z,1028.44
2019-04-19T14:35:23.937Z,1028.50
2019-04-19T14:36:23.986Z,1028.49
2019-04-19T14:37:22.801Z,1028.47
2019-04-19T14:38:23.598Z,1028.45
2019-04-19T14:39:22.785Z,1028.47
2019-04-19T14:40:23.699Z,1028.45
2019-04-19T14:41:23.184Z,1028.41
2019-04-19T14:42:26.015Z,1028.38
2019-04-19T14:43:22.796Z,1028.49
2019-04-19T14:44:22.693Z,1028.47
2019-04-19T14:45:23.915Z,1028.40
2019-04-19T14:46:22.783Z,1028.39
2019-04-19T14:47:23.197Z,1028.40
2019-04-19T14:48:28.479Z,1028.35
2019-04-19T14:49:22.895Z,1028.34
2019-04-19T14:50:23.167Z,1028.35
2019-04-19T14:51:27.968Z,1028.36
2019-04-19T14:52:23.633Z,1028.43
2019-04-19T14:53:22.553Z,1028.32
2019-04-19T14:54:23.342Z,1028.33
2019-04-19T14:55:23.241Z,1028.33
2019-04-19T14:56:23.730Z,1028.33
2019-04-19T14:57:23.173Z,1028.39
2019-04-19T14:58:22.477Z,1028.37
2019-04-19T14:59:22.558Z,1028.38
2019-04-19T15:00:22.982Z,1028.32
2019-04-19T15:01:22.430Z,1028.37
2019-04-19T15:02:22.805Z,1028.34
2019-04-19T15:03:22.976Z,1028.35
2019-04-19T15:04:22.383Z,1028.34
2019-04-19T15:05:23.516Z,1028.31
2019-04-19T15:06:22.354Z,1028.28
2019-04-19T15:07:22.800Z,1028.26
2019-04-19T15:08:22.569Z,1028.30
2019-04-19T15:09:23.564Z,1028.30
2019-04-19T15:10:22.291Z,1028.35
2019-04-19T15:11:23.421Z,1028.37
2019-04-19T15:12:22.838Z,1028.30
2019-04-19T15:13:23.018Z,1028.25
2019-04-19T15:14:22.227Z,1028.29
2019-04-19T15:15:22.380Z,1028.32
2019-04-19T15:16:23.214Z,1028.26
2019-04-19T15:17:23.515Z,1028.24
2019-04-19T15:18:23.298Z,1028.24
2019-04-19T15:19:23.093Z,1028.20
2019-04-19T15:20:22.250Z,1028.20
2019-04-19T15:21:23.588Z,1028.26
2019-04-19T15:22:22.156Z,1028.21
2019-04-19T15:23:22.535Z,1028.31
2019-04-19T15:24:22.963Z,1028.21
2019-04-19T15:25:22.060Z,1028.24
2019-04-19T15:26:22.684Z,1028.25
2019-04-19T15:27:23.129Z,1028.21
2019-04-19T15:28:22.743Z,1028.18
2019-04-19T15:29:22.902Z,1028.21
2019-04-19T15:30:23.136Z,1028.18
2019-04-19T15:31:21.964Z,1028.19
2019-04-19T15:32:22.301Z,1028.18
2019-04-19T15:33:22.658Z,1028.16
2019-04-19T15:34:21.997Z,1028.17
2019-04-19T15:35:21.902Z,1028.19
2019-04-19T15:36:21.888Z,1028.21
2019-04-19T15:37:23.074Z,1028.16
2019-04-19T15:38:21.856Z,1028.21
2019-04-19T15:39:21.948Z,1028.20
2019-04-19T15:40:22.439Z,1028.20
2019-04-19T15:41:22.084Z,1028.20
2019-04-19T15:42:22.644Z,1028.19
2019-04-19T15:43:21.779Z,1028.17
2019-04-19T15:44:22.369Z,1028.19
2019-04-19T15:45:22.929Z,1028.26
2019-04-19T15:46:21.847Z,1028.19
2019-04-19T15:47:21.718Z,1028.23
2019-04-19T15:48:32.935Z,1028.22
2019-04-19T15:49:21.871Z,1028.23
2019-04-19T15:50:22.126Z,1028.22
2019-04-19T15:51:27.135Z,1028.21
2019-04-19T15:52:22.014Z,1028.18
2019-04-19T15:53:22.186Z,1028.19
2019-04-19T15:54:21.606Z,1028.20
2019-04-19T15:55:21.909Z,1028.21
2019-04-19T15:56:22.337Z,1028.18
2019-04-19T15:57:21.560Z,1028.19
2019-04-19T15:58:22.413Z,1028.18
2019-04-19T15:59:23.905Z,1028.24
2019-04-19T16:00:22.300Z,1028.24
2019-04-19T16:01:21.911Z,1028.22
2019-04-19T16:02:22.072Z,1028.20
2019-04-19T16:03:22.287Z,1028.24
2019-04-19T16:04:21.831Z,1028.23
2019-04-19T16:05:22.176Z,1028.22
2019-04-19T16:06:22.475Z,1028.23
2019-04-19T16:07:21.897Z,1028.29
2019-04-19T16:08:22.541Z,1028.21
2019-04-19T16:09:21.508Z,1028.22
2019-04-19T16:10:22.353Z,1028.19
2019-04-19T16:11:22.567Z,1028.24
2019-04-19T16:12:21.779Z,1028.20
2019-04-19T16:13:21.312Z,1028.21
2019-04-19T16:14:21.901Z,1028.24
2019-04-19T16:15:22.154Z,1028.25
2019-04-19T16:16:23.073Z,1028.21
2019-04-19T16:17:21.252Z,1028.20
2019-04-19T16:18:22.217Z,1028.19
2019-04-19T16:19:22.518Z,1028.22
2019-04-19T16:20:21.232Z,1028.16
2019-04-19T16:21:27.090Z,1028.17
2019-04-19T16:22:22.384Z,1028.21
2019-04-19T16:23:21.157Z,1028.22
2019-04-19T16:24:21.143Z,1028.25
2019-04-19T16:25:21.256Z,1028.23
2019-04-19T16:26:21.261Z,1028.21
2019-04-19T16:27:21.094Z,1028.21
2019-04-19T16:28:21.386Z,1028.22
2019-04-19T16:29:27.804Z,1028.19
2019-04-19T16:30:21.045Z,1028.20
2019-04-19T16:31:22.267Z,1028.22
2019-04-19T16:32:21.203Z,1028.23
2019-04-19T16:33:22.057Z,1028.22
2019-04-19T16:34:20.982Z,1028.25
2019-04-19T16:35:22.195Z,1028.23
2019-04-19T16:36:21.176Z,1028.22
2019-04-19T16:37:20.946Z,1028.20
2019-04-19T16:38:21.914Z,1028.23
2019-04-19T16:39:21.386Z,1028.20
2019-04-19T16:40:20.889Z,1028.25
2019-04-19T16:41:20.874Z,1028.24
2019-04-19T16:42:21.019Z,1028.26
2019-04-19T16:43:21.579Z,1028.27
2019-04-19T16:44:20.828Z,1028.25
2019-04-19T16:45:21.926Z,1028.24
2019-04-19T16:46:24.219Z,1028.29
2019-04-19T16:47:21.660Z,1028.30
2019-04-19T16:48:20.764Z,1028.26
2019-04-19T16:49:20.749Z,1028.27
2019-04-19T16:50:20.786Z,1028.24
2019-04-19T16:51:32.094Z,1028.25
2019-04-19T16:52:20.702Z,1028.26
2019-04-19T16:53:21.830Z,1028.29
2019-04-19T16:54:20.671Z,1028.23
2019-04-19T16:55:21.222Z,1028.25
2019-04-19T16:56:21.767Z,1028.28
2019-04-19T16:57:25.258Z,1028.26
2019-04-19T16:58:20.867Z,1028.27
2019-04-19T16:59:21.742Z,1028.24
2019-04-19T17:00:20.597Z,1028.28
2019-04-19T17:01:20.884Z,1028.29
2019-04-19T17:02:20.545Z,1028.28
2019-04-19T17:03:21.586Z,1028.27
2019-04-19T17:04:23.221Z,1028.31
2019-04-19T17:05:20.891Z,1028.30
2019-04-19T17:06:20.495Z,1028.29
2019-04-19T17:07:20.713Z,1028.30
2019-04-19T17:08:21.688Z,1028.32
2019-04-19T17:09:20.764Z,1028.26
2019-04-19T17:10:21.640Z,1028.29
2019-04-19T17:11:21.663Z,1028.30
2019-04-19T17:12:20.940Z,1028.27
2019-04-19T17:13:20.594Z,1028.28
2019-04-19T17:14:21.017Z,1028.30
2019-04-19T17:15:21.157Z,1028.32
2019-04-19T17:16:20.329Z,1028.33
2019-04-19T17:17:20.470Z,1028.28
2019-04-19T17:18:20.711Z,1028.35
2019-04-19T17:19:21.081Z,1028.33
2019-04-19T17:20:21.561Z,1028.31
2019-04-19T17:21:20.260Z,1028.32
2019-04-19T17:22:23.443Z,1028.35
2019-04-19T17:23:20.218Z,1028.35
2019-04-19T17:24:20.879Z,1028.33
2019-04-19T17:25:21.123Z,1028.32
2019-04-19T17:26:20.359Z,1028.37
2019-04-19T17:27:25.056Z,1028.36
2019-04-19T17:28:21.147Z,1028.38
2019-04-19T17:29:20.122Z,1028.39
2019-04-19T17:30:20.274Z,1028.38
2019-04-19T17:31:20.324Z,1028.36
2019-04-19T17:32:20.554Z,1028.38
2019-04-19T17:33:20.155Z,1028.39
2019-04-19T17:34:20.248Z,1028.41
2019-04-19T17:35:20.477Z,1028.42
2019-04-19T17:36:20.115Z,1028.40
2019-04-19T17:37:20.272Z,1028.43
2019-04-19T17:39:20.462Z,1028.42
2019-04-19T17:39:47.132Z,1028.41
2019-04-19T17:40:20.558Z,1028.46
2019-04-19T17:41:20.763Z,1028.44
2019-04-19T17:42:19.921Z,1028.50
2019-04-19T17:43:19.907Z,1028.46
2019-04-19T17:44:19.889Z,1028.50
2019-04-19T17:45:19.997Z,1028.49
2019-04-19T17:46:20.252Z,1028.50
2019-04-19T17:47:24.355Z,1028.49
2019-04-19T17:48:20.745Z,1028.52
2019-04-19T17:49:20.370Z,1028.47
2019-04-19T17:50:20.713Z,1028.47
2019-04-19T17:51:19.943Z,1028.48
2019-04-19T17:52:26.250Z,1028.55
2019-04-19T17:53:20.515Z,1028.48
2019-04-19T17:54:41.522Z,1028.48
2019-04-19T17:55:27.460Z,1028.51
2019-04-19T17:56:19.698Z,1028.51
2019-04-19T17:57:20.925Z,1028.49
2019-04-19T17:58:19.669Z,1028.53
2019-04-19T17:59:21.132Z,1028.56
2019-04-19T18:00:19.638Z,1028.57
2019-04-19T18:01:20.231Z,1028.56
2019-04-19T18:02:19.604Z,1028.60
2019-04-19T18:03:20.447Z,1028.59
2019-04-19T18:04:19.915Z,1028.59
2019-04-19T18:05:20.135Z,1028.63
2019-04-19T18:06:20.359Z,1028.61
2019-04-19T18:07:20.773Z,1028.61
2019-04-19T18:08:25.420Z,1028.63
2019-04-19T18:09:21.259Z,1028.65
2019-04-19T18:10:22.039Z,1028.64
2019-04-19T18:11:22.665Z,1028.66
2019-04-19T18:12:19.447Z,1028.70
2019-04-19T18:13:19.506Z,1028.68
2019-04-19T18:14:19.866Z,1028.73
2019-04-19T18:15:19.660Z,1028.73
2019-04-19T18:16:20.582Z,1028.74
2019-04-19T18:17:19.369Z,1028.76
2019-04-19T18:18:20.858Z,1028.75
2019-04-19T18:19:24.104Z,1028.77
2019-04-19T18:20:21.193Z,1028.76
2019-04-19T18:21:19.405Z,1028.79
2019-04-19T18:22:34.420Z,1028.76
2019-04-19T18:23:30.424Z,1028.78
2019-04-19T18:24:25.483Z,1028.78
2019-04-19T18:25:20.127Z,1028.81
2019-04-19T18:26:28.363Z,1028.76
2019-04-19T18:27:24.692Z,1028.81
2019-04-19T18:28:19.780Z,1028.80
2019-04-19T18:29:23.176Z,1028.80
2019-04-19T18:30:20.114Z,1028.80
2019-04-19T18:31:25.985Z,1028.87
2019-04-19T18:32:20.419Z,1028.89
2019-04-19T18:33:20.196Z,1028.91
2019-04-19T18:34:19.106Z,1028.88
2019-04-19T18:35:25.249Z,1028.94
2019-04-19T18:36:23.253Z,1028.91
2019-04-19T18:37:22.667Z,1028.95
2019-04-19T18:38:21.375Z,1028.95
2019-04-19T18:39:20.120Z,1028.96
2019-04-19T18:40:19.471Z,1028.98
2019-04-19T18:41:18.997Z,1028.97
2019-04-19T18:42:19.913Z,1029.02
2019-04-19T18:43:27.902Z,1029.01
2019-04-19T18:44:25.690Z,1029.00
2019-04-19T18:45:24.756Z,1029.01
2019-04-19T18:46:18.921Z,1029.02
2019-04-19T18:47:18.903Z,1029.04
2019-04-19T18:48:19.788Z,1029.03
2019-04-19T18:49:18.871Z,1029.05
2019-04-19T18:50:20.258Z,1029.08
2019-04-19T18:51:30.815Z,1029.07
2019-04-19T18:52:35.856Z,1029.03
2019-04-19T18:53:28.534Z,1029.07
2019-04-19T18:54:25.870Z,1029.07
2019-04-19T18:55:27.318Z,1029.04
2019-04-19T18:56:22.061Z,1029.04
2019-04-19T18:57:19.013Z,1029.08
2019-04-19T18:58:24.941Z,1029.10
2019-04-19T18:59:22.695Z,1029.11
2019-04-19T19:00:18.805Z,1029.12
2019-04-19T19:01:25.753Z,1029.11
2019-04-19T19:02:23.213Z,1029.09
2019-04-19T19:03:19.897Z,1029.10
2019-04-19T19:04:24.240Z,1029.13
2019-04-19T19:05:18.624Z,1029.13
2019-04-19T19:06:22.164Z,1029.17
2019-04-19T19:07:23.404Z,1029.18
2019-04-19T19:08:26.066Z,1029.15
2019-04-19T19:09:21.256Z,1029.20
2019-04-19T19:10:24.488Z,1029.24
2019-04-19T19:11:20.981Z,1029.21
2019-04-19T19:12:18.591Z,1029.22
2019-04-19T19:13:27.628Z,1029.26
2019-04-19T19:14:21.482Z,1029.25
2019-04-19T19:15:18.755Z,1029.26
2019-04-19T19:16:23.540Z,1029.25
2019-04-19T19:17:20.527Z,1029.26
2019-04-19T19:18:19.317Z,1029.28
2019-04-19T19:19:25.208Z,1029.33
2019-04-19T19:20:22.618Z,1029.35
2019-04-19T19:21:18.388Z,1029.35
2019-04-19T19:22:26.157Z,1029.34
2019-04-19T19:23:32.713Z,1029.36
2019-04-19T19:24:38.807Z,1029.36
2019-04-19T19:25:24.950Z,1029.40
2019-04-19T19:26:27.453Z,1029.39
2019-04-19T19:27:23.483Z,1029.36
2019-04-19T19:28:21.348Z,1029.42
2019-04-19T19:29:18.457Z,1029.40
2019-04-19T19:30:18.233Z,1029.42
2019-04-19T19:31:18.789Z,1029.45
2019-04-19T19:32:19.508Z,1029.48
2019-04-19T19:33:22.093Z,1029.49
2019-04-19T19:34:22.467Z,1029.49
2019-04-19T19:35:22.001Z,1029.49
2019-04-19T19:36:21.183Z,1029.49
2019-04-19T19:37:20.791Z,1029.48
2019-04-19T19:38:24.137Z,1029.48
2019-04-19T19:39:26.664Z,1029.50
2019-04-19T19:40:31.416Z,1029.52
2019-04-19T19:41:33.746Z,1029.48
2019-04-19T19:42:41.202Z,1029.50
2019-04-19T19:43:36.876Z,1029.48
2019-04-19T19:44:29.725Z,1029.49
2019-04-19T19:45:36.230Z,1029.47
2019-04-19T19:46:40.184Z,1029.47
2019-04-19T19:47:41.009Z,1029.51
2019-04-19T19:48:49.698Z,1029.46
2019-04-19T19:49:40.463Z,1029.47
2019-04-19T19:50:42.797Z,1029.51
2019-04-19T19:51:29.552Z,1029.48
2019-04-19T19:52:32.745Z,1029.49
2019-04-19T19:53:49.083Z,1029.48
2019-04-19T19:55:38.680Z,1029.50
2019-04-19T19:57:30.034Z,1029.49
2019-04-19T19:58:28.084Z,1029.45
2019-04-19T19:59:28.294Z,1029.48
2019-04-19T20:00:29.277Z,1029.49
2019-04-19T20:01:32.501Z,1029.49
2019-04-19T20:02:28.010Z,1029.53
2019-04-19T20:03:24.462Z,1029.50
2019-04-19T20:04:17.729Z,1029.52
2019-04-19T20:05:23.063Z,1029.52
2019-04-19T20:06:23.694Z,1029.55
2019-04-19T20:07:22.063Z,1029.53
2019-04-19T20:08:22.788Z,1029.57
2019-04-19T20:09:23.032Z,1029.58
2019-04-19T20:10:19.357Z,1029.55
2019-04-19T20:11:23.610Z,1029.59
2019-04-19T20:12:20.564Z,1029.57
2019-04-19T20:13:19.420Z,1029.61
2019-04-19T20:14:21.455Z,1029.61
2019-04-19T20:15:18.588Z,1029.63
2019-04-19T20:16:23.653Z,1029.64
2019-04-19T20:17:18.175Z,1029.63
2019-04-19T20:18:18.205Z,1029.63
2019-04-19T20:19:19.696Z,1029.69
2019-04-19T20:20:20.475Z,1029.69
2019-04-19T20:21:19.927Z,1029.68
2019-04-19T20:22:17.414Z,1029.65
2019-04-19T20:23:25.805Z,1029.68
2019-04-19T20:24:34.058Z,1029.65
2019-04-19T20:25:28.450Z,1029.63
2019-04-19T20:26:26.325Z,1029.66
2019-04-19T20:27:21.919Z,1029.66
2019-04-19T20:28:23.433Z,1029.67
2019-04-19T20:29:23.905Z,1029.67
2019-04-19T20:30:17.284Z,1029.66
2019-04-19T20:31:24.098Z,1029.66
2019-04-19T20:32:20.407Z,1029.67
2019-04-19T20:33:18.359Z,1029.70
2019-04-19T20:34:22.842Z,1029.71
2019-04-19T20:35:21.161Z,1029.70
2019-04-19T20:36:17.184Z,1029.68
2019-04-19T20:37:20.426Z,1029.70
2019-04-19T20:38:21.514Z,1029.65
2019-04-19T20:39:24.013Z,1029.67
2019-04-19T20:40:18.026Z,1029.66
2019-04-19T20:41:17.105Z,1029.67
2019-04-19T20:42:27.063Z,1029.71
2019-04-19T20:43:36.208Z,1029.71
2019-04-19T20:44:37.843Z,1029.68
2019-04-19T20:45:29.131Z,1029.70
2019-04-19T20:46:21.830Z,1029.71
2019-04-19T20:47:23.100Z,1029.71
2019-04-19T20:48:22.461Z,1029.69
2019-04-19T20:49:17.196Z,1029.74
2019-04-19T20:50:25.438Z,1029.70
2019-04-19T20:51:34.047Z,1029.72
2019-04-19T20:52:30.889Z,1029.74
2019-04-19T20:53:25.278Z,1029.73
2019-04-19T20:54:42.633Z,1029.70
2019-04-19T20:55:35.831Z,1029.73
2019-04-19T20:56:48.022Z,1029.72
2019-04-19T20:57:33.682Z,1029.74
2019-04-19T20:58:27.614Z,1029.75
2019-04-19T20:59:18.078Z,1029.75
2019-04-19T21:00:16.775Z,1029.75
2019-04-19T21:01:17.001Z,1029.77
2019-04-19T21:02:23.778Z,1029.76
2019-04-19T21:03:24.615Z,1029.76
2019-04-19T21:04:18.537Z,1029.77
2019-04-19T21:05:17.688Z,1029.75
2019-04-19T21:06:22.142Z,1029.71
2019-04-19T21:07:19.981Z,1029.76
2019-04-19T21:08:20.805Z,1029.76
2019-04-19T21:09:24.041Z,1029.74
2019-04-19T21:10:18.597Z,1029.78
2019-04-19T21:11:17.235Z,1029.77
2019-04-19T21:12:22.728Z,1029.80
2019-04-19T21:13:19.579Z,1029.79
2019-04-19T21:14:16.531Z,1029.78
2019-04-19T21:15:22.359Z,1029.81
2019-04-19T21:16:16.499Z,1029.82
2019-04-19T21:17:16.622Z,1029.83
2019-04-19T21:18:21.868Z,1029.81
2019-04-19T21:19:16.448Z,1029.82
2019-04-19T21:20:19.769Z,1029.83
2019-04-19T21:21:18.337Z,1029.83
2019-04-19T21:22:25.734Z,1029.82
2019-04-19T21:23:21.936Z,1029.85
2019-04-19T21:24:16.427Z,1029.80
2019-04-19T21:25:21.359Z,1029.82
2019-04-19T21:26:23.062Z,1029.83
2019-04-19T21:27:22.426Z,1029.83
2019-04-19T21:28:16.744Z,1029.83
2019-04-19T21:29:21.032Z,1029.82
2019-04-19T21:30:16.781Z,1029.84
2019-04-19T21:31:19.332Z,1029.84
2019-04-19T21:32:22.500Z,1029.85
2019-04-19T21:33:18.644Z,1029.81
2019-04-19T21:34:16.213Z,1029.80
2019-04-19T21:35:17.461Z,1029.83
2019-04-19T21:36:17.891Z,1029.84
2019-04-19T21:37:26.604Z,1029.83
2019-04-19T21:38:21.529Z,1029.82
2019-04-19T21:39:18.334Z,1029.84
2019-04-19T21:40:24.188Z,1029.83
2019-04-19T21:41:22.923Z,1029.84
2019-04-19T21:42:18.960Z,1029.83
2019-04-19T21:43:16.952Z,1029.83
2019-04-19T21:44:19.901Z,1029.79
2019-04-19T21:45:16.029Z,1029.84
2019-04-19T21:46:20.187Z,1029.84
2019-04-19T21:47:15.999Z,1029.85
2019-04-19T21:48:18.049Z,1029.83
2019-04-19T21:49:19.314Z,1029.84
2019-04-19T21:50:16.966Z,1029.84
2019-04-19T21:51:21.704Z,1029.87
2019-04-19T21:52:20.505Z,1029.89
2019-04-19T21:53:16.584Z,1029.86
2019-04-19T21:54:16.664Z,1029.84
2019-04-19T21:55:25.367Z,1029.90
2019-04-19T21:56:17.189Z,1029.87
2019-04-19T21:57:22.655Z,1029.90
2019-04-19T21:58:19.523Z,1029.86
2019-04-19T21:59:15.801Z,1029.91
2019-04-19T22:00:21.100Z,1029.90
2019-04-19T22:01:17.810Z,1029.91
2019-04-19T22:02:25.630Z,1029.89
2019-04-19T22:03:20.094Z,1029.93
2019-04-19T22:04:17.166Z,1029.91
2019-04-19T22:05:18.301Z,1029.90
2019-04-19T22:06:21.446Z,1029.92
2019-04-19T22:07:17.060Z,1029.92
2019-04-19T22:08:24.070Z,1029.89
2019-04-19T22:09:20.481Z,1029.91
2019-04-19T22:10:15.607Z,1029.92
2019-04-19T22:11:16.317Z,1029.94
2019-04-19T22:12:16.533Z,1029.94
2019-04-19T22:13:16.685Z,1029.94
2019-04-19T22:14:21.447Z,1029.92
2019-04-19T22:15:15.841Z,1029.94
2019-04-19T22:16:16.664Z,1029.94
2019-04-19T22:17:21.012Z,1029.95
2019-04-19T22:18:15.470Z,1029.93
2019-04-19T22:19:21.539Z,1029.91
2019-04-19T22:20:19.527Z,1029.90
2019-04-19T22:21:16.637Z,1029.92
2019-04-19T22:22:23.560Z,1029.91
2019-04-19T22:23:16.207Z,1029.92
2019-04-19T22:24:22.242Z,1029.93
2019-04-19T22:25:31.085Z,1029.91
2019-04-19T22:26:25.068Z,1029.89
2019-04-19T22:27:15.656Z,1029.89
2019-04-19T22:28:15.392Z,1029.92
2019-04-19T22:29:15.551Z,1029.87
2019-04-19T22:30:15.712Z,1029.85
2019-04-19T22:31:20.823Z,1029.87
2019-04-19T22:32:17.574Z,1029.83
2019-04-19T22:33:16.391Z,1029.82
2019-04-19T22:34:15.180Z,1029.85
2019-04-19T22:35:19.036Z,1029.84
2019-04-19T22:36:15.457Z,1029.88
2019-04-19T22:37:23.513Z,1029.89
2019-04-19T22:38:17.861Z,1029.91
2019-04-19T22:39:15.826Z,1029.94
2019-04-19T22:40:16.459Z,1029.90
2019-04-19T22:41:16.892Z,1029.94
2019-04-19T22:42:15.081Z,1029.92
2019-04-19T22:43:16.327Z,1029.89
2019-04-19T22:44:15.016Z,1029.88
2019-04-19T22:45:20.107Z,1029.86
2019-04-19T22:46:15.737Z,1029.87
2019-04-19T22:47:17.702Z,1029.88
2019-04-19T22:48:18.276Z,1029.88
2019-04-19T22:49:16.509Z,1029.87
2019-04-19T22:50:17.949Z,1029.86
2019-04-19T22:51:18.392Z,1029.83
2019-04-19T22:52:14.867Z,1029.86
2019-04-19T22:53:19.111Z,1029.86
2019-04-19T22:54:14.957Z,1029.86
2019-04-19T22:55:17.645Z,1029.88
2019-04-19T22:56:22.719Z,1029.85
2019-04-19T22:57:18.844Z,1029.87
2019-04-19T22:58:21.244Z,1029.88
2019-04-19T22:59:18.286Z,1029.86
2019-04-19T23:00:15.972Z,1029.89
2019-04-19T23:01:19.752Z,1029.84
2019-04-19T23:02:14.694Z,1029.87
2019-04-19T23:03:25.104Z,1029.89
2019-04-19T23:04:19.171Z,1029.85
2019-04-19T23:05:14.942Z,1029.83
2019-04-19T23:06:19.859Z,1029.86
2019-04-19T23:07:14.645Z,1029.82
2019-04-19T23:08:19.247Z,1029.81
2019-04-19T23:09:19.118Z,1029.83
2019-04-19T23:10:14.848Z,1029.85
2019-04-19T23:11:15.241Z,1029.83
2019-04-19T23:12:14.524Z,1029.83
2019-04-19T23:13:15.559Z,1029.79
2019-04-19T23:14:14.491Z,1029.81
2019-04-19T23:15:19.298Z,1029.80
2019-04-19T23:16:15.430Z,1029.76
2019-04-19T23:17:14.609Z,1029.77
2019-04-19T23:18:18.700Z,1029.79
2019-04-19T23:19:14.757Z,1029.77
2019-04-19T23:20:19.835Z,1029.76
2019-04-19T23:21:19.483Z,1029.73
2019-04-19T23:22:14.386Z,1029.74
2019-04-19T23:23:21.668Z,1029.76
2019-04-19T23:24:16.257Z,1029.75
2019-04-19T23:25:15.610Z,1029.77
2019-04-19T23:26:22.457Z,1029.75
2019-04-19T23:27:21.652Z,1029.78
2019-04-19T23:28:22.205Z,1029.77
2019-04-19T23:29:21.907Z,1029.76
2019-04-19T23:30:18.816Z,1029.75
2019-04-19T23:31:15.999Z,1029.75
2019-04-19T23:32:17.701Z,1029.72
2019-04-19T23:33:18.081Z,1029.74
2019-04-19T23:34:14.313Z,1029.73
2019-04-19T23:35:14.247Z,1029.74
2019-04-19T23:36:18.934Z,1029.71
2019-04-19T23:37:16.747Z,1029.70
2019-04-19T23:38:19.854Z,1029.71
2019-04-19T23:39:15.549Z,1029.71
2019-04-19T23:40:15.132Z,1029.74
2019-04-19T23:41:15.201Z,1029.75
2019-04-19T23:42:15.123Z,1029.72
2019-04-19T23:43:15.910Z,1029.72
2019-04-19T23:44:17.996Z,1029.69
2019-04-19T23:45:14.702Z,1029.70
2019-04-19T23:46:19.484Z,1029.71
2019-04-19T23:47:13.929Z,1029.72
2019-04-19T23:48:20.124Z,1029.68
2019-04-19T23:49:16.106Z,1029.68
2019-04-19T23:50:13.877Z,1029.68
2019-04-19T23:51:16.510Z,1029.73
2019-04-19T23:52:14.939Z,1029.69
2019-04-19T23:53:14.380Z,1029.72
2019-04-19T23:54:20.586Z,1029.74
2019-04-19T23:55:14.627Z,1029.72
2019-04-19T23:56:22.618Z,1029.73
2019-04-19T23:57:19.823Z,1029.68
2019-04-19T23:58:22.913Z,1029.72
2019-04-19T23:59:18.996Z,1029.72
